Time;durP1;ratioP1;P1;durP2;ratioP2;P2;SDS_P1;SDS_P2;PMS_P1;PMS_P2;Temp;Humidity;BMP_temperature;BMP_pressure;BME280_temperature;BME280_humidity;BME280_pressure;Samples;Min_cycle;Max_cycle;Signal;HPM_P1;HPM_P2
2021/03/26 00:01:47;;;;;;;80.45;17.20;;;7.30;1.00;;;;;;5074619;28;20585;-67
2021/03/26 00:04:14;;;;;;;73.97;15.52;;;7.40;1.00;;;;;;5074263;28;20641;-66
2021/03/26 00:06:43;;;;;;;82.05;17.85;;;7.40;1.00;;;;;;5074343;28;20218;-66
2021/03/26 00:09:13;;;;;;;77.53;17.48;;;7.40;1.00;;;;;;5073949;28;20248;-66
2021/03/26 00:11:40;;;;;;;76.15;17.42;;;7.50;1.00;;;;;;5074173;28;20338;-66
2021/03/26 00:14:07;;;;;;;80.07;16.75;;;7.50;1.00;;;;;;5073904;28;20308;-66
2021/03/26 00:16:34;;;;;;;75.97;16.50;;;7.60;1.00;;;;;;5074324;28;20245;-66
2021/03/26 00:19:00;;;;;;;71.85;15.63;;;7.60;1.00;;;;;;5073805;28;20230;-66
2021/03/26 00:21:27;;;;;;;73.75;16.42;;;7.60;1.00;;;;;;5074093;28;20305;-66
2021/03/26 00:23:53;;;;;;;73.55;16.52;;;7.60;1.00;;;;;;5073859;28;20289;-66
2021/03/26 00:26:20;;;;;;;71.65;16.58;;;7.70;1.00;;;;;;5073737;28;20202;-65
2021/03/26 00:28:46;;;;;;;74.53;15.52;;;7.70;1.00;;;;;;5073558;28;20236;-66
2021/03/26 00:31:14;;;;;;;77.05;17.17;;;7.70;1.00;;;;;;5073978;28;20263;-66
2021/03/26 00:33:41;;;;;;;74.13;17.33;;;7.80;1.00;;;;;;5073661;28;20652;-66
2021/03/26 00:36:08;;;;;;;76.07;16.52;;;7.80;1.00;;;;;;5073998;28;20256;-66
2021/03/26 00:38:34;;;;;;;73.67;14.73;;;7.80;1.00;;;;;;5073696;28;20225;-66
2021/03/26 00:41:01;;;;;;;73.75;16.73;;;7.80;1.00;;;;;;5073940;28;20478;-66
2021/03/26 00:43:28;;;;;;;74.30;16.15;;;7.80;1.00;;;;;;5073782;28;20314;-66
2021/03/26 00:45:54;;;;;;;74.30;15.57;;;7.70;1.00;;;;;;5073907;28;20296;-66
2021/03/26 00:48:23;;;;;;;73.90;15.30;;;7.70;1.00;;;;;;5073648;28;20563;-66
2021/03/26 00:50:52;;;;;;;77.77;16.73;;;7.70;1.00;;;;;;5073672;28;20268;-66
2021/03/26 00:53:21;;;;;;;74.60;16.73;;;7.70;1.00;;;;;;5073346;28;20550;-66
2021/03/26 00:55:49;;;;;;;77.03;15.88;;;7.70;1.00;;;;;;5073677;28;20544;-66
2021/03/26 00:58:15;;;;;;;74.43;15.57;;;7.70;1.00;;;;;;5073466;28;20316;-66
2021/03/26 01:00:42;;;;;;;77.05;16.05;;;7.60;1.00;;;;;;5073508;28;20209;-66
2021/03/26 01:03:09;;;;;;;72.85;15.50;;;7.60;1.00;;;;;;5073251;28;20210;-66
2021/03/26 01:05:39;;;;;;;79.33;16.50;;;7.50;1.00;;;;;;5072766;28;20210;-66
2021/03/26 01:08:06;;;;;;;79.40;16.63;;;7.40;1.00;;;;;;5072822;28;20956;-66
2021/03/26 01:10:37;;;;;;;75.90;15.45;;;7.40;1.00;;;;;;5073437;28;20225;-66
2021/03/26 01:13:05;;;;;;;72.68;15.20;;;7.30;1.00;;;;;;5073043;28;20206;-66
2021/03/26 01:15:31;;;;;;;71.32;14.63;;;7.20;1.00;;;;;;5072896;28;20308;-66
2021/03/26 01:18:00;;;;;;;73.47;14.90;;;7.10;1.00;;;;;;5072772;28;20720;-66
2021/03/26 01:20:29;;;;;;;72.07;15.07;;;7.00;1.00;;;;;;5072737;28;20594;-66
2021/03/26 01:22:56;;;;;;;75.68;16.23;;;7.00;1.00;;;;;;5072807;28;20247;-66
2021/03/26 01:25:26;;;;;;;71.70;15.52;;;6.80;1.00;;;;;;5072794;28;20214;-66
2021/03/26 01:27:52;;;;;;;69.45;14.18;;;6.70;1.00;;;;;;5072491;28;20307;-66
2021/03/26 01:30:21;;;;;;;73.35;15.20;;;6.60;1.00;;;;;;5072419;28;20320;-66
2021/03/26 01:32:48;;;;;;;72.78;15.75;;;6.60;1.00;;;;;;5072413;28;20205;-66
2021/03/26 01:35:16;;;;;;;71.80;14.40;;;6.50;1.00;;;;;;5072229;28;20304;-66
2021/03/26 01:37:43;;;;;;;73.00;15.98;;;6.40;1.00;;;;;;5072310;28;20324;-66
2021/03/26 01:40:13;;;;;;;74.18;14.35;;;6.40;1.00;;;;;;5072345;28;20292;-66
2021/03/26 01:42:40;;;;;;;81.32;15.85;;;6.40;1.00;;;;;;5072307;28;20760;-66
2021/03/26 01:45:10;;;;;;;71.53;15.02;;;6.30;1.00;;;;;;5072260;28;20209;-66
2021/03/26 01:47:37;;;;;;;75.00;15.60;;;6.30;1.00;;;;;;5072092;28;20231;-66
2021/03/26 01:50:06;;;;;;;69.63;14.25;;;6.30;1.00;;;;;;5072278;28;20271;-66
2021/03/26 01:52:33;;;;;;;72.20;13.63;;;6.20;1.00;;;;;;5072362;28;20296;-66
2021/03/26 01:54:59;;;;;;;72.00;13.70;;;6.20;1.00;;;;;;5072086;28;20236;-66
2021/03/26 01:57:26;;;;;;;71.55;15.23;;;6.20;1.00;;;;;;5072418;28;20311;-66
2021/03/26 01:59:54;;;;;;;73.82;14.75;;;6.10;1.00;;;;;;5072110;28;20208;-66
2021/03/26 02:02:23;;;;;;;71.65;14.15;;;6.10;1.00;;;;;;5071666;28;20205;-66
2021/03/26 02:04:50;;;;;;;69.07;13.00;;;6.10;1.00;;;;;;5071876;28;20212;-66
2021/03/26 02:07:17;;;;;;;68.72;12.60;;;6.10;1.00;;;;;;5071827;28;20828;-66
2021/03/26 02:09:44;;;;;;;71.95;13.23;;;6.00;1.00;;;;;;5071883;28;20225;-66
2021/03/26 02:12:18;;;;;;;70.18;14.38;;;5.90;1.00;;;;;;5071619;28;20212;-67
2021/03/26 02:14:49;;;;;;;73.85;14.40;;;5.90;1.00;;;;;;5071655;28;20232;-66
2021/03/26 02:17:21;;;;;;;68.90;13.27;;;5.80;1.00;;;;;;5071385;28;20574;-67
2021/03/26 02:19:51;;;;;;;73.60;14.80;;;5.80;1.00;;;;;;5071852;28;20287;-67
2021/03/26 02:22:20;;;;;;;70.45;13.23;;;5.70;1.00;;;;;;5072059;28;20258;-66
2021/03/26 02:24:49;;;;;;;73.35;14.30;;;5.70;1.00;;;;;;5071766;28;20205;-66
2021/03/26 02:27:18;;;;;;;68.97;13.32;;;5.70;1.00;;;;;;5071360;28;20311;-66
2021/03/26 02:29:45;;;;;;;72.43;13.90;;;5.70;1.00;;;;;;5071664;28;20228;-66
2021/03/26 02:32:22;;;;;;;72.90;13.80;;;5.70;1.00;;;;;;5071757;28;20628;-66
2021/03/26 02:35:08;;;;;;;70.45;14.43;;;5.70;1.00;;;;;;5071549;28;20267;-66
2021/03/26 02:37:36;;;;;;;72.65;13.45;;;5.80;1.00;;;;;;5071514;28;20278;-66
2021/03/26 02:40:06;;;;;;;75.05;14.05;;;5.80;1.00;;;;;;5071632;28;20288;-66
2021/03/26 02:42:34;;;;;;;70.63;12.98;;;5.80;1.00;;;;;;5071536;28;20618;-66
2021/03/26 02:45:10;;;;;;;69.93;13.88;;;5.80;1.00;;;;;;5071482;28;20322;-66
2021/03/26 02:47:40;;;;;;;71.30;13.20;;;5.80;1.00;;;;;;5071480;28;20224;-66
2021/03/26 02:50:11;;;;;;;69.18;13.02;;;5.80;1.00;;;;;;5071027;28;20274;-66
2021/03/26 02:52:46;;;;;;;67.18;12.48;;;5.80;1.00;;;;;;5071507;28;20635;-67
2021/03/26 02:55:22;;;;;;;68.43;13.60;;;5.70;1.00;;;;;;5071486;28;20211;-67
2021/03/26 02:57:54;;;;;;;67.68;12.80;;;5.70;1.00;;;;;;5071412;28;20268;-67
2021/03/26 03:00:26;;;;;;;69.65;14.75;;;5.60;1.00;;;;;;5071357;28;20215;-67
2021/03/26 03:02:56;;;;;;;72.45;13.50;;;5.50;1.00;;;;;;5071679;28;20280;-67
2021/03/26 03:05:27;;;;;;;69.80;13.65;;;5.50;1.00;;;;;;5071079;28;20296;-67
2021/03/26 03:08:00;;;;;;;68.68;13.48;;;5.50;1.00;;;;;;5071317;28;20308;-67
2021/03/26 03:10:32;;;;;;;66.97;11.95;;;5.40;1.00;;;;;;5071013;28;20366;-67
2021/03/26 03:13:06;;;;;;;68.78;12.45;;;5.30;1.00;;;;;;5071022;28;20207;-65
2021/03/26 03:15:37;;;;;;;70.40;15.30;;;5.30;1.00;;;;;;5071288;28;20643;-65
2021/03/26 03:18:08;;;;;;;71.88;13.18;;;5.30;1.00;;;;;;5071064;28;20312;-67
2021/03/26 03:20:40;;;;;;;68.90;12.60;;;5.30;1.00;;;;;;5070985;28;20685;-67
2021/03/26 03:23:13;;;;;;;72.65;13.98;;;5.20;1.00;;;;;;5070979;28;20205;-67
2021/03/26 03:25:41;;;;;;;68.97;12.68;;;5.10;1.00;;;;;;5070957;28;20205;-67
2021/03/26 03:28:20;;;;;;;71.53;13.95;;;5.10;1.00;;;;;;5071154;28;20311;-67
2021/03/26 03:30:59;;;;;;;72.05;14.35;;;5.00;1.00;;;;;;5074908;28;20677;-67
2021/03/26 03:33:34;;;;;;;68.10;12.73;;;5.00;1.00;;;;;;5074795;28;20211;-67
2021/03/26 03:36:05;;;;;;;70.15;13.52;;;4.90;1.00;;;;;;5075145;28;20216;-67
2021/03/26 03:38:49;;;;;;;74.40;14.48;;;4.90;1.00;;;;;;5074592;28;20225;-67
2021/03/26 03:41:22;;;;;;;71.07;14.32;;;4.80;1.00;;;;;;5074929;28;20205;-67
2021/03/26 03:43:56;;;;;;;69.53;15.15;;;4.80;1.00;;;;;;5074642;28;20205;-67
2021/03/26 03:46:27;;;;;;;72.85;16.50;;;4.80;1.00;;;;;;5074332;28;20204;-67
2021/03/26 03:48:59;;;;;;;69.53;15.45;;;4.70;1.00;;;;;;5074550;28;20229;-67
2021/03/26 03:51:32;;;;;;;71.50;15.05;;;4.70;1.00;;;;;;5074609;28;20738;-67
2021/03/26 03:54:04;;;;;;;72.40;14.82;;;4.70;1.00;;;;;;5074489;28;20232;-64
2021/03/26 03:56:36;;;;;;;70.97;15.18;;;4.60;1.00;;;;;;5074424;28;20241;-64
2021/03/26 03:59:06;;;;;;;72.22;14.30;;;4.60;1.00;;;;;;5074057;28;20221;-64
2021/03/26 04:01:38;;;;;;;70.28;15.38;;;4.60;1.00;;;;;;5074323;28;20204;-67
2021/03/26 04:04:10;;;;;;;71.80;14.00;;;4.60;1.00;;;;;;5074127;28;20236;-67
2021/03/26 04:06:44;;;;;;;68.50;13.50;;;4.60;1.00;;;;;;5074198;28;20211;-67
2021/03/26 04:09:14;;;;;;;71.97;14.85;;;4.50;1.00;;;;;;5074008;28;20263;-67
2021/03/26 04:11:45;;;;;;;69.70;13.50;;;4.50;1.00;;;;;;5073828;28;20521;-67
2021/03/26 04:14:17;;;;;;;71.22;14.77;;;4.50;1.00;;;;;;5074192;28;20623;-67
2021/03/26 04:16:49;;;;;;;71.63;14.30;;;4.50;1.00;;;;;;5074164;28;20236;-67
2021/03/26 04:19:20;;;;;;;74.40;15.02;;;4.50;1.00;;;;;;5073744;28;20225;-64
2021/03/26 04:21:51;;;;;;;69.80;13.55;;;4.50;1.00;;;;;;5073830;28;20201;-65
2021/03/26 04:24:25;;;;;;;69.60;13.55;;;4.50;1.00;;;;;;5074145;28;20205;-65
2021/03/26 04:26:58;;;;;;;72.47;13.70;;;4.50;1.00;;;;;;5073968;28;20207;-65
2021/03/26 04:29:27;;;;;;;67.60;13.25;;;4.50;1.00;;;;;;5073886;28;20233;-66
2021/03/26 04:31:59;;;;;;;76.70;14.00;;;4.50;1.00;;;;;;5073498;28;20304;-65
2021/03/26 04:34:26;;;;;;;70.70;14.80;;;4.50;1.00;;;;;;5073476;28;20212;-66
2021/03/26 04:37:01;;;;;;;74.93;13.02;;;4.50;1.00;;;;;;5074041;28;20291;-66
2021/03/26 04:39:34;;;;;;;70.95;13.27;;;4.50;1.00;;;;;;5073730;28;20230;-66
2021/03/26 04:42:09;;;;;;;73.45;14.27;;;4.50;1.00;;;;;;5072873;28;20300;-66
2021/03/26 04:44:44;;;;;;;73.45;14.20;;;4.50;1.00;;;;;;5073770;28;20249;-66
2021/03/26 04:47:18;;;;;;;70.40;14.10;;;4.50;1.00;;;;;;5073531;28;20204;-65
2021/03/26 04:49:50;;;;;;;70.15;13.60;;;4.40;1.00;;;;;;5073699;28;20593;-66
2021/03/26 04:52:22;;;;;;;68.72;13.35;;;4.40;1.00;;;;;;5073448;28;20205;-65
2021/03/26 04:54:54;;;;;;;70.18;13.35;;;4.40;1.00;;;;;;5073504;28;20300;-65
2021/03/26 04:57:32;;;;;;;70.25;13.50;;;4.40;1.00;;;;;;5073170;28;20233;-66
2021/03/26 05:00:06;;;;;;;71.65;14.10;;;4.30;1.00;;;;;;5073429;28;20232;-66
2021/03/26 05:02:33;;;;;;;71.05;14.68;;;4.30;1.00;;;;;;5073213;28;20288;-66
2021/03/26 05:05:02;;;;;;;78.30;13.48;;;4.30;1.00;;;;;;5073112;28;20304;-66
2021/03/26 05:07:32;;;;;;;70.97;14.43;;;4.30;1.00;;;;;;5073001;28;20275;-66
2021/03/26 05:10:04;;;;;;;74.20;14.18;;;4.30;1.00;;;;;;5072879;28;20648;-66
2021/03/26 05:12:35;;;;;;;74.28;17.45;;;4.30;1.00;;;;;;5073186;28;20304;-66
2021/03/26 05:15:07;;;;;;;71.35;14.07;;;4.30;1.00;;;;;;5073014;28;20281;-66
2021/03/26 05:17:38;;;;;;;71.68;12.75;;;4.40;1.00;;;;;;5072755;28;20597;-66
2021/03/26 05:20:13;;;;;;;72.85;14.80;;;4.30;1.00;;;;;;5072801;28;20684;-66
2021/03/26 05:22:46;;;;;;;71.00;14.73;;;4.30;1.00;;;;;;5072879;28;20238;-66
2021/03/26 05:25:22;;;;;;;70.50;13.55;;;4.30;1.00;;;;;;5072674;28;20340;-66
2021/03/26 05:27:49;;;;;;;73.75;14.68;;;4.20;1.00;;;;;;5072614;28;20307;-66
2021/03/26 05:30:21;;;;;;;74.10;14.75;;;4.20;1.00;;;;;;5072470;28;20312;-66
2021/03/26 05:32:55;;;;;;;70.15;13.05;;;4.10;1.00;;;;;;5072251;28;20236;-66
2021/03/26 05:35:25;;;;;;;77.38;15.07;;;4.10;1.00;;;;;;5072344;28;20248;-65
2021/03/26 05:38:00;;;;;;;72.60;14.95;;;4.10;1.00;;;;;;5072764;28;20311;-66
2021/03/26 05:40:55;;;;;;;68.90;13.32;;;4.10;1.00;;;;;;5072394;28;20204;-66
2021/03/26 05:43:48;;;;;;;70.88;14.88;;;4.10;1.00;;;;;;5072559;28;20232;-66
2021/03/26 05:46:24;;;;;;;68.40;14.30;;;4.00;1.00;;;;;;5072367;28;20287;-66
2021/03/26 05:48:58;;;;;;;72.18;15.80;;;4.00;1.00;;;;;;5072177;28;20703;-66
2021/03/26 05:51:40;;;;;;;77.60;16.05;;;4.00;1.00;;;;;;5072141;28;20219;-66
2021/03/26 05:54:20;;;;;;;70.90;14.57;;;4.00;1.00;;;;;;5071621;28;20626;-67
2021/03/26 05:57:00;;;;;;;69.88;14.65;;;4.00;1.00;;;;;;5072109;28;20744;-67
2021/03/26 05:59:45;;;;;;;72.63;15.57;;;4.10;1.00;;;;;;5072108;28;20205;-66
2021/03/26 06:02:41;;;;;;;72.10;14.23;;;4.10;1.00;;;;;;5072072;28;20213;-66
2021/03/26 06:05:40;;;;;;;78.25;16.25;;;4.10;1.00;;;;;;5072264;28;20235;-66
2021/03/26 06:08:48;;;;;;;79.18;15.80;;;4.10;1.00;;;;;;5071818;28;20769;-66
2021/03/26 06:11:39;;;;;;;72.47;15.52;;;4.10;1.00;;;;;;5009911;28;20698;-66
2021/03/26 06:14:31;;;;;;;72.25;15.60;;;4.20;1.00;;;;;;5009864;28;20725;-66
2021/03/26 06:17:31;;;;;;;72.75;16.67;;;4.30;1.00;;;;;;5058598;28;20291;-66
2021/03/26 06:20:18;;;;;;;75.22;16.60;;;4.40;1.00;;;;;;5071547;28;20291;-66
2021/03/26 06:23:17;;;;;;;74.50;16.23;;;4.60;1.00;;;;;;5071452;28;20669;-66
2021/03/26 06:26:02;;;;;;;77.10;16.55;;;4.60;1.00;;;;;;5071900;28;20296;-66
2021/03/26 06:28:41;;;;;;;73.22;15.90;;;4.70;1.00;;;;;;5071614;28;20250;-66
2021/03/26 06:31:54;;;;;;;74.32;16.13;;;4.80;1.00;;;;;;5071450;28;20236;-67
2021/03/26 06:34:57;;;;;;;74.45;16.75;;;5.00;1.00;;;;;;5071685;28;20256;-67
2021/03/26 06:37:43;;;;;;;78.50;17.20;;;5.20;1.00;;;;;;5071329;28;20228;-65
2021/03/26 06:40:35;;;;;;;75.03;16.08;;;5.40;1.00;;;;;;5071492;28;20240;-65
2021/03/26 06:43:27;;;;;;;75.63;17.35;;;5.70;1.00;;;;;;5071495;28;20605;-66
2021/03/26 06:46:09;;;;;;;76.40;15.63;;;5.90;1.00;;;;;;5071312;28;20213;-66
2021/03/26 06:48:50;;;;;;;71.15;13.93;;;6.10;1.00;;;;;;5071657;28;20225;-66
2021/03/26 06:51:52;;;;;;;76.85;16.35;;;6.30;1.00;;;;;;5071530;28;20284;-66
2021/03/26 06:54:51;;;;;;;71.55;15.25;;;6.40;1.00;;;;;;5071610;28;20267;-66
2021/03/26 06:57:57;;;;;;;79.75;16.38;;;6.40;1.00;;;;;;5071444;28;20334;-66
2021/03/26 07:00:41;;;;;;;74.95;16.75;;;6.30;1.00;;;;;;5028764;28;20260;-66
2021/03/26 07:03:43;;;;;;;71.75;14.73;;;6.40;1.00;;;;;;5028921;28;20679;-66
2021/03/26 07:06:42;;;;;;;72.60;14.88;;;6.50;1.00;;;;;;5069110;28;20298;-66
2021/03/26 07:09:24;;;;;;;74.75;14.40;;;6.60;1.00;;;;;;5075440;28;20314;-66
2021/03/26 07:12:20;;;;;;;73.60;15.30;;;6.70;1.00;;;;;;5075651;28;20244;-65
2021/03/26 07:14:59;;;;;;;70.75;14.80;;;6.70;1.00;;;;;;5075061;28;20291;-66
2021/03/26 07:18:01;;;;;;;73.60;14.38;;;6.80;1.00;;;;;;5075412;28;20961;-65
2021/03/26 07:21:03;;;;;;;69.82;13.80;;;6.90;1.00;;;;;;5075277;28;20236;-66
2021/03/26 07:24:01;;;;;;;72.90;16.33;;;7.10;1.00;;;;;;5075002;28;20291;-66
2021/03/26 07:26:43;;;;;;;81.68;17.38;;;7.20;1.00;;;;;;5075107;28;20289;-66
2021/03/26 07:29:28;;;;;;;71.85;15.43;;;7.30;1.00;;;;;;5074592;28;20236;-66
2021/03/26 07:32:22;;;;;;;73.82;15.80;;;7.40;1.00;;;;;;5075024;28;20208;-67
2021/03/26 07:35:05;;;;;;;75.57;15.75;;;7.50;1.00;;;;;;5075197;28;20648;-66
2021/03/26 07:37:38;;;;;;;73.45;15.93;;;7.60;1.00;;;;;;5074738;28;20312;-66
2021/03/26 07:40:35;;;;;;;74.30;16.70;;;7.80;1.00;;;;;;5074651;28;20688;-66
2021/03/26 07:43:18;;;;;;;75.40;15.63;;;8.00;1.00;;;;;;5075444;28;20201;-67
2021/03/26 07:45:58;;;;;;;77.85;17.08;;;8.30;1.00;;;;;;5076091;28;20209;-67
2021/03/26 07:48:57;;;;;;;73.00;16.30;;;8.50;1.00;;;;;;5075776;28;20226;-67
2021/03/26 07:51:29;;;;;;;71.75;15.45;;;8.60;1.00;;;;;;5076256;28;20522;-67
2021/03/26 07:54:19;;;;;;;79.13;15.87;;;8.80;1.00;;;;;;5076393;28;20300;-66
2021/03/26 07:57:15;;;;;;;72.13;15.93;;;9.00;1.00;;;;;;5076568;28;20453;-66
2021/03/26 08:00:16;;;;;;;74.50;17.40;;;9.20;1.00;;;;;;5076100;28;20449;-66
2021/03/26 08:03:01;;;;;;;73.80;16.83;;;9.30;1.00;;;;;;5075351;28;20449;-66
2021/03/26 08:05:33;;;;;;;75.83;17.77;;;9.30;1.00;;;;;;5075268;28;20449;-66
2021/03/26 08:08:37;;;;;;;71.63;15.70;;;9.40;1.00;;;;;;5076209;28;20555;-66
2021/03/26 08:11:17;;;;;;;71.50;16.10;;;9.50;1.00;;;;;;5075241;28;20575;-66
2021/03/26 08:14:06;;;;;;;79.93;16.87;;;9.60;1.00;;;;;;5075078;28;20476;-66
2021/03/26 08:16:55;;;;;;;73.40;16.27;;;9.80;1.00;;;;;;5074636;28;20896;-66
2021/03/26 08:19:29;;;;;;;76.63;16.50;;;9.90;1.00;;;;;;5075063;28;20445;-66
2021/03/26 08:22:03;;;;;;;78.17;16.47;;;10.10;1.00;;;;;;5076276;28;20483;-67
2021/03/26 08:24:40;;;;;;;78.97;17.20;;;10.30;1.00;;;;;;5075890;28;20521;-67
2021/03/26 08:27:18;;;;;;;75.43;17.03;;;10.40;1.00;;;;;;5075321;28;20485;-67
2021/03/26 08:29:54;;;;;;;77.17;17.90;;;10.50;1.00;;;;;;5074925;28;20533;-67
2021/03/26 08:32:42;;;;;;;69.80;14.37;;;10.60;1.00;;;;;;5075241;28;20558;-67
2021/03/26 08:35:43;;;;;;;72.27;15.73;;;10.70;1.00;;;;;;5074901;28;20492;-67
2021/03/26 08:38:34;;;;;;;72.17;15.47;;;10.80;1.00;;;;;;5070938;28;20991;-67
2021/03/26 08:41:04;;;;;;;74.00;16.40;;;10.90;1.00;;;;;;5074829;28;20866;-67
2021/03/26 08:43:34;;;;;;;76.10;15.90;;;11.10;1.00;;;;;;5074427;28;20495;-66
2021/03/26 08:46:09;;;;;;;76.30;16.70;;;11.20;1.00;;;;;;5074382;28;20497;-66
2021/03/26 08:48:42;;;;;;;72.33;17.00;;;11.40;1.00;;;;;;5074380;28;20553;-67
2021/03/26 08:51:34;;;;;;;72.00;14.73;;;11.60;1.00;;;;;;5075078;28;20575;-67
2021/03/26 08:54:15;;;;;;;70.27;15.67;;;11.80;1.00;;;;;;5075234;28;20488;-67
2021/03/26 08:56:52;;;;;;;72.00;14.80;;;11.90;1.00;;;;;;5074615;28;20442;-67
2021/03/26 08:59:33;;;;;;;72.37;14.63;;;12.10;1.00;;;;;;5074472;28;20455;-67
2021/03/26 09:02:35;;;;;;;70.93;14.73;;;12.20;1.00;;;;;;5074082;28;20537;-66
2021/03/26 09:05:37;;;;;;;72.40;14.07;;;12.40;1.00;;;;;;5074005;28;20533;-67
2021/03/26 09:08:18;;;;;;;69.77;14.20;;;12.50;1.00;;;;;;5074528;28;20541;-67
2021/03/26 09:11:06;;;;;;;71.27;14.20;;;12.60;1.00;;;;;;5074567;28;20479;-67
2021/03/26 09:13:49;;;;;;;69.23;13.37;;;12.80;1.00;;;;;;5074100;28;20446;-67
2021/03/26 09:16:20;;;;;;;70.30;14.90;;;12.90;1.00;;;;;;5073845;28;20533;-67
2021/03/26 09:18:52;;;;;;;71.40;12.83;;;13.10;1.00;;;;;;5073701;28;20499;-67
2021/03/26 09:21:37;;;;;;;71.10;12.40;;;13.30;1.00;;;;;;5074167;28;20469;-67
2021/03/26 09:24:33;;;;;;;67.53;13.00;;;13.50;1.00;;;;;;5073605;28;20439;-67
2021/03/26 09:27:17;;;;;;;66.30;12.03;;;13.80;1.00;;;;;;5073465;28;20449;-68
2021/03/26 09:29:56;;;;;;;68.13;12.77;;;14.00;1.00;;;;;;5074144;28;20484;-67
2021/03/26 09:32:28;;;;;;;67.07;11.37;;;14.20;1.00;;;;;;5072232;28;20450;-68
2021/03/26 09:35:04;;;;;;;66.40;11.33;;;14.30;1.00;;;;;;5072957;28;20604;-67
2021/03/26 09:37:41;;;;;;;66.33;11.67;;;14.50;1.00;;;;;;5072625;28;20546;-67
2021/03/26 09:40:13;;;;;;;67.17;12.03;;;14.70;1.00;;;;;;5072555;28;20446;-67
2021/03/26 09:42:44;;;;;;;67.70;12.33;;;15.00;1.00;;;;;;5072236;28;20454;-67
2021/03/26 09:45:21;;;;;;;69.77;12.97;;;15.20;1.00;;;;;;5072331;28;20503;-67
2021/03/26 09:48:11;;;;;;;70.70;13.60;;;15.40;1.00;;;;;;5072412;28;20478;-67
2021/03/26 09:50:42;;;;;;;67.77;13.00;;;15.70;1.00;;;;;;5072263;28;20566;-67
2021/03/26 09:53:13;;;;;;;71.60;13.20;;;16.00;1.00;;;;;;5071979;28;20539;-67
2021/03/26 09:55:43;;;;;;;68.17;13.77;;;16.10;1.00;;;;;;5072265;28;20453;-67
2021/03/26 09:58:21;;;;;;;69.63;12.90;;;16.30;1.00;;;;;;5072173;28;20905;-67
2021/03/26 10:00:53;;;;;;;72.10;13.90;;;16.80;1.00;;;;;;5072168;28;20930;-67
2021/03/26 10:03:41;;;;;;;66.77;12.60;;;17.70;1.00;;;;;;5071912;28;20529;-68
2021/03/26 10:06:16;;;;;;;67.20;12.60;;;19.10;1.00;;;;;;5076738;28;20442;-67
2021/03/26 10:11:30;;;;;;;67.87;12.30;;;21.80;1.00;;;;;;5089473;28;20446;-67
2021/03/26 10:14:01;;;;;;;69.13;12.43;;;22.60;1.00;;;;;;5091845;28;20529;-67
2021/03/26 10:16:39;;;;;;;65.97;11.80;;;23.30;1.00;;;;;;5092129;28;20485;-67
2021/03/26 10:19:09;;;;;;;69.40;12.20;;;23.80;1.00;;;;;;5092191;28;20468;-67
2021/03/26 10:21:38;;;;;;;65.77;12.27;;;24.30;1.00;;;;;;5092199;28;20437;-66
2021/03/26 10:24:18;;;;;;;67.43;12.90;;;24.80;1.00;;;;;;5091784;28;20442;-65
2021/03/26 10:26:50;;;;;;;64.07;11.60;;;24.80;1.00;;;;;;5092183;28;20438;-66
2021/03/26 10:29:35;;;;;;;67.70;12.27;;;25.10;1.00;;;;;;5092058;28;20553;-65
2021/03/26 10:32:15;;;;;;;66.57;11.80;;;25.40;1.00;;;;;;5091938;28;20450;-66
2021/03/26 10:34:44;;;;;;;72.97;12.90;;;26.00;1.00;;;;;;5091605;28;20454;-66
2021/03/26 10:37:39;;;;;;;65.87;11.87;;;26.30;1.00;;;;;;5091882;28;20543;-65
2021/03/26 10:40:12;;;;;;;64.77;10.10;;;26.40;1.00;;;;;;5090911;28;20459;-67
2021/03/26 10:42:48;;;;;;;65.43;11.40;;;27.00;1.00;;;;;;5091539;28;20532;-65
2021/03/26 10:45:38;;;;;;;65.97;10.50;;;27.80;1.00;;;;;;5091574;28;20452;-65
2021/03/26 10:48:09;;;;;;;64.47;10.13;;;27.90;1.00;;;;;;5091687;28;20497;-67
2021/03/26 10:51:20;;;;;;;64.17;9.80;;;27.60;1.00;;;;;;5091609;28;20625;-66
2021/03/26 10:53:51;;;;;;;64.73;9.17;;;27.90;1.00;;;;;;5063319;28;20446;-67
2021/03/26 10:56:38;;;;;;;63.67;11.03;;;28.50;1.00;;;;;;5091815;28;20721;-67
2021/03/26 10:59:12;;;;;;;62.47;10.37;;;28.90;1.00;;;;;;5091366;28;20487;-66
2021/03/26 11:01:41;;;;;;;65.70;9.90;;;28.80;1.00;;;;;;5091642;28;20532;-66
2021/03/26 11:04:20;;;;;;;62.90;9.80;;;28.50;1.00;;;;;;5091553;28;20470;-66
2021/03/26 11:06:51;;;;;;;63.40;9.77;;;28.30;1.00;;;;;;5091440;28;20479;-66
2021/03/26 11:09:22;;;;;;;63.80;9.40;;;27.70;1.00;;;;;;5091262;28;20566;-66
2021/03/26 11:12:01;;;;;;;61.37;8.93;;;27.20;1.00;;;;;;5091678;28;20898;-66
2021/03/26 11:14:47;;;;;;;65.90;9.60;;;27.00;1.00;;;;;;5091094;28;20462;-66
2021/03/26 11:17:38;;;;;;;62.93;10.40;;;27.50;1.00;;;;;;5091522;28;20502;-66
2021/03/26 11:20:34;;;;;;;65.40;10.33;;;27.70;1.00;;;;;;5090089;28;20986;-65
2021/03/26 11:23:16;;;;;;;64.73;10.20;;;28.10;1.00;;;;;;5090898;28;20530;-66
2021/03/26 11:25:45;;;;;;;66.03;8.97;;;28.60;1.00;;;;;;5091452;28;20442;-65
2021/03/26 11:28:25;;;;;;;68.40;8.10;;;29.60;1.00;;;;;;5091094;28;20558;-66
2021/03/26 11:31:08;;;;;;;62.67;8.70;;;30.50;1.00;;;;;;5091542;28;20888;-66
2021/03/26 11:33:43;;;;;;;60.43;8.40;;;30.90;1.00;;;;;;5090940;28;20457;-66
2021/03/26 11:36:34;;;;;;;61.80;8.50;;;31.10;1.00;;;;;;5091200;28;20537;-66
2021/03/26 11:39:04;;;;;;;64.00;8.87;;;30.70;1.00;;;;;;5070746;28;20845;-67
2021/03/26 11:41:34;;;;;;;61.40;8.43;;;30.10;1.00;;;;;;5071153;28;20476;-67
2021/03/26 11:44:03;;;;;;;61.70;8.33;;;30.30;1.00;;;;;;5071062;28;20989;-66
2021/03/26 11:46:38;;;;;;;62.07;8.17;;;30.20;1.00;;;;;;5071113;28;20451;-66
2021/03/26 11:49:13;;;;;;;61.00;7.87;;;30.00;1.00;;;;;;5070828;28;20509;-67
2021/03/26 11:51:43;;;;;;;62.20;8.10;;;30.30;1.00;;;;;;5074444;28;20873;-67
2021/03/26 11:54:13;;;;;;;64.77;8.67;;;30.80;1.00;;;;;;5074236;28;20927;-66
2021/03/26 11:56:50;;;;;;;61.57;7.90;;;30.50;1.00;;;;;;5074649;28;20456;-66
2021/03/26 12:00:01;;;;;;;63.30;8.10;;;29.00;1.00;;;;;;5074740;28;20539;-66
2021/03/26 12:02:58;;;;;;;62.67;7.87;;;27.50;1.00;;;;;;5074672;28;20454;-66
2021/03/26 12:05:36;;;;;;;61.37;7.80;;;26.70;1.00;;;;;;5074195;28;21017;-66
2021/03/26 12:08:08;;;;;;;63.10;8.13;;;27.50;1.00;;;;;;5074182;28;21025;-66
2021/03/26 12:10:38;;;;;;;64.73;8.20;;;28.00;1.00;;;;;;5074063;28;20516;-66
2021/03/26 12:13:12;;;;;;;61.43;6.50;;;29.10;1.00;;;;;;5074254;28;20543;-66
2021/03/26 12:15:43;;;;;;;62.70;6.63;;;30.20;1.00;;;;;;5074280;28;20831;-66
2021/03/26 12:18:18;;;;;;;61.80;5.93;;;30.80;1.00;;;;;;5074291;28;20463;-66
2021/03/26 12:20:46;;;;;;;61.30;5.80;;;31.60;1.00;;;;;;5074257;28;20443;-66
2021/03/26 12:23:32;;;;;;;61.00;6.17;;;31.80;1.00;;;;;;5073819;28;20831;-66
2021/03/26 12:26:06;;;;;;;60.53;5.20;;;32.10;1.00;;;;;;5073911;28;20543;-65
2021/03/26 12:28:42;;;;;;;61.87;5.90;;;32.30;1.00;;;;;;5073944;28;20472;-66
2021/03/26 12:31:16;;;;;;;58.73;5.07;;;32.30;1.00;;;;;;5073904;28;20483;-66
2021/03/26 12:33:49;;;;;;;58.17;4.83;;;32.10;1.00;;;;;;5073497;28;20527;-66
2021/03/26 12:36:21;;;;;;;59.50;5.50;;;32.40;1.00;;;;;;5073640;28;21013;-65
2021/03/26 12:38:55;;;;;;;60.23;5.80;;;32.60;1.00;;;;;;5073651;28;20979;-65
2021/03/26 12:41:37;;;;;;;58.90;5.83;;;32.00;1.00;;;;;;5073690;28;20539;-66
2021/03/26 12:44:12;;;;;;;61.97;7.30;;;31.80;1.00;;;;;;5073497;28;20447;-67
2021/03/26 12:47:10;;;;;;;61.40;6.07;;;32.00;1.00;;;;;;5073865;28;20486;-66
2021/03/26 12:49:44;;;;;;;59.97;6.83;;;32.80;1.00;;;;;;5073510;28;20573;-67
2021/03/26 12:52:28;;;;;;;59.97;6.13;;;33.50;1.00;;;;;;5073385;28;20439;-67
2021/03/26 12:55:10;;;;;;;61.37;6.53;;;33.80;1.00;;;;;;5073663;28;20545;-66
2021/03/26 12:57:47;;;;;;;62.50;6.77;;;33.80;1.00;;;;;;5073353;28;20558;-67
2021/03/26 13:00:18;;;;;;;63.33;6.47;;;34.10;1.00;;;;;;5073430;28;20534;-67
2021/03/26 13:02:56;;;;;;;58.70;5.67;;;34.10;1.00;;;;;;5072503;28;20486;-66
2021/03/26 13:05:27;;;;;;;62.60;7.23;;;34.40;1.00;;;;;;5073382;28;21074;-67
2021/03/26 13:08:04;;;;;;;59.87;5.87;;;34.20;1.00;;;;;;5073284;28;20471;-66
2021/03/26 13:10:43;;;;;;;59.80;5.90;;;34.70;1.00;;;;;;5073064;28;20479;-66
2021/03/26 13:13:17;;;;;;;62.63;6.90;;;35.30;1.00;;;;;;5073066;28;20520;-67
2021/03/26 13:16:09;;;;;;;62.40;6.20;;;35.50;1.00;;;;;;5073207;28;20451;-66
2021/03/26 13:18:46;;;;;;;59.10;6.60;;;35.70;1.00;;;;;;5073085;28;20548;-67
2021/03/26 13:21:40;;;;;;;58.43;6.33;;;35.90;1.00;;;;;;5073036;28;20450;-68
2021/03/26 13:24:22;;;;;;;58.77;6.00;;;36.10;1.00;;;;;;5073152;28;20449;-67
2021/03/26 13:26:50;;;;;;;60.17;6.43;;;36.90;1.00;;;;;;5072816;28;21007;-67
2021/03/26 13:29:24;;;;;;;59.60;5.97;;;37.30;1.00;;;;;;5072863;28;20554;-67
2021/03/26 13:31:51;;;;;;;57.90;5.17;;;37.20;1.00;;;;;;5072733;28;20444;-67
2021/03/26 13:34:22;;;;;;;57.73;5.23;;;37.40;1.00;;;;;;5072878;28;20555;-67
2021/03/26 13:36:59;;;;;;;59.90;5.40;;;36.10;1.00;;;;;;5072915;28;20865;-67
2021/03/26 13:39:36;;;;;;;59.00;5.93;;;35.10;1.00;;;;;;5072777;28;20864;-67